Time;durP1;ratioP1;P1;durP2;ratioP2;P2;SDS_P1;SDS_P2;PMS_P1;PMS_P2;Temp;Humidity;BMP_temperature;BMP_pressure;BME280_temperature;BME280_humidity;BME280_pressure;Samples;Min_cycle;Max_cycle;Signal;HPM_P1;HPM_P2
2023/09/29 00:02:47;;;;;;;11.33;9.37;;;;;;;;;;6269959;28;20181;-71
2023/09/29 00:05:49;;;;;;;11.80;9.10;;;;;;;;;;6270502;28;20194;-71
2023/09/29 00:08:50;;;;;;;9.77;8.77;;;;;;;;;;6265125;28;20187;-71
2023/09/29 00:11:51;;;;;;;14.37;9.37;;;;;;;;;;6267802;28;20258;-70
2023/09/29 00:14:52;;;;;;;10.90;8.97;;;;;;;;;;6268587;28;20280;-70
2023/09/29 00:17:53;;;;;;;12.73;9.27;;;;;;;;;;6271890;28;20189;-71
2023/09/29 00:20:54;;;;;;;11.27;9.20;;;;;;;;;;6267483;28;20210;-71
2023/09/29 00:23:55;;;;;;;11.27;10.00;;;;;;;;;;6269723;28;20186;-70
2023/09/29 00:26:56;;;;;;;10.87;8.80;;;;;;;;;;6263037;28;20200;-71
2023/09/29 00:29:57;;;;;;;12.63;8.77;;;;;;;;;;6271294;28;20233;-71
2023/09/29 00:32:58;;;;;;;11.20;10.00;;;;;;;;;;6266031;28;20185;-71
2023/09/29 00:35:59;;;;;;;11.43;9.63;;;;;;;;;;6270464;28;20320;-70
2023/09/29 00:39:01;;;;;;;12.03;9.00;;;;;;;;;;6274941;28;20205;-71
2023/09/29 00:42:06;;;;;;;14.67;10.10;;;;;;;;;;6252486;28;20215;-70
2023/09/29 00:45:08;;;;;;;15.07;8.83;;;;;;;;;;6255468;28;20279;-70
2023/09/29 00:48:10;;;;;;;11.97;9.07;;;;;;;;;;6266960;28;20187;-71
2023/09/29 00:51:11;;;;;;;10.83;9.10;;;;;;;;;;6270194;28;20186;-70
2023/09/29 00:54:13;;;;;;;11.00;9.27;;;;;;;;;;6257414;28;20219;-71
2023/09/29 00:57:14;;;;;;;11.67;9.10;;;;;;;;;;6263331;28;20245;-71
2023/09/29 01:00:30;;;;;;;11.13;9.00;;;;;;;;;;6257386;28;20264;-70
2023/09/29 01:03:31;;;;;;;13.87;9.63;;;;;;;;;;6283696;28;20182;-70
2023/09/29 01:06:32;;;;;;;11.37;8.83;;;;;;;;;;6260841;28;20190;-70
2023/09/29 01:09:33;;;;;;;13.97;9.83;;;;;;;;;;6246180;28;20190;-71
2023/09/29 01:12:35;;;;;;;11.80;9.57;;;;;;;;;;6257934;28;20194;-70
2023/09/29 01:15:36;;;;;;;14.60;9.87;;;;;;;;;;6268544;28;20834;-70
2023/09/29 01:18:37;;;;;;;12.47;9.53;;;;;;;;;;6270566;28;20252;-71
2023/09/29 01:21:39;;;;;;;12.77;9.47;;;;;;;;;;6274700;28;20202;-71
2023/09/29 01:24:40;;;;;;;11.70;9.67;;;;;;;;;;6264631;28;20187;-71
2023/09/29 01:27:42;;;;;;;12.73;8.80;;;;;;;;;;6271132;28;20194;-71
2023/09/29 01:30:44;;;;;;;12.33;9.63;;;;;;;;;;6278598;28;20292;-71
2023/09/29 01:33:45;;;;;;;10.97;9.87;;;;;;;;;;6256491;28;20186;-71
2023/09/29 01:36:48;;;;;;;11.50;9.57;;;;;;;;;;6271537;28;20216;-70
2023/09/29 01:39:49;;;;;;;14.00;9.37;;;;;;;;;;6265829;28;20193;-71
2023/09/29 01:42:51;;;;;;;10.77;9.20;;;;;;;;;;6253275;28;20274;-70
2023/09/29 01:45:52;;;;;;;10.23;8.87;;;;;;;;;;6261111;28;20263;-71
2023/09/29 01:48:53;;;;;;;13.23;9.70;;;;;;;;;;6262927;28;20277;-71
2023/09/29 01:51:55;;;;;;;12.90;9.53;;;;;;;;;;6273886;28;20190;-71
2023/09/29 01:54:56;;;;;;;12.03;10.17;;;;;;;;;;6264451;28;20187;-71
2023/09/29 01:57:57;;;;;;;11.80;9.37;;;;;;;;;;6267916;28;20198;-71
2023/09/29 02:00:58;;;;;;;13.90;9.57;;;;;;;;;;6254069;28;20211;-71
2023/09/29 02:04:00;;;;;;;10.30;9.30;;;;;;;;;;6267136;28;20195;-71
2023/09/29 02:07:01;;;;;;;13.60;9.50;;;;;;;;;;6248639;28;20197;-71
2023/09/29 02:10:03;;;;;;;14.67;9.47;;;;;;;;;;6272217;28;20220;-71
2023/09/29 02:13:04;;;;;;;10.70;9.23;;;;;;;;;;6272220;28;20194;-71
2023/09/29 02:16:12;;;;;;;13.00;10.20;;;;;;;;;;6266467;28;20220;-71
2023/09/29 02:19:13;;;;;;;13.97;9.97;;;;;;;;;;6266523;28;20184;-71
2023/09/29 02:22:16;;;;;;;12.80;9.30;;;;;;;;;;6273492;28;20221;-71
2023/09/29 02:25:18;;;;;;;12.07;9.37;;;;;;;;;;6249995;28;20297;-70
2023/09/29 02:28:19;;;;;;;12.77;9.43;;;;;;;;;;6268409;28;20186;-71
2023/09/29 02:31:21;;;;;;;14.40;10.00;;;;;;;;;;6268825;28;20234;-70
2023/09/29 02:34:23;;;;;;;12.20;8.97;;;;;;;;;;6258097;28;20194;-70
2023/09/29 02:37:24;;;;;;;10.57;9.43;;;;;;;;;;6273770;28;20194;-70
2023/09/29 02:40:25;;;;;;;11.37;9.70;;;;;;;;;;6273547;28;20210;-70
2023/09/29 02:43:33;;;;;;;11.43;9.93;;;;;;;;;;6260919;28;20200;-71
2023/09/29 02:46:34;;;;;;;10.43;9.17;;;;;;;;;;6278745;28;20186;-70
2023/09/29 02:49:35;;;;;;;11.20;10.10;;;;;;;;;;6266378;28;20194;-71
2023/09/29 02:52:39;;;;;;;11.27;10.17;;;;;;;;;;6255866;28;20199;-70
2023/09/29 02:55:40;;;;;;;11.60;9.67;;;;;;;;;;6273148;28;20281;-70
2023/09/29 02:58:41;;;;;;;10.83;9.73;;;;;;;;;;6260313;28;20182;-70
2023/09/29 03:01:44;;;;;;;12.07;9.50;;;;;;;;;;6248505;28;20244;-71
2023/09/29 03:04:46;;;;;;;10.07;9.07;;;;;;;;;;6271244;28;20183;-70
2023/09/29 03:07:48;;;;;;;15.03;9.50;;;;;;;;;;6256719;28;20279;-70
2023/09/29 03:10:49;;;;;;;10.17;9.10;;;;;;;;;;6275935;28;20182;-71
2023/09/29 03:13:50;;;;;;;11.73;9.93;;;;;;;;;;6252041;28;20244;-71
2023/09/29 03:16:53;;;;;;;11.73;9.97;;;;;;;;;;6248349;28;20197;-71
2023/09/29 03:19:54;;;;;;;13.90;10.20;;;;;;;;;;6265947;28;20202;-70
2023/09/29 03:22:57;;;;;;;11.73;10.47;;;;;;;;;;6250811;28;20213;-70
2023/09/29 03:25:58;;;;;;;10.70;9.67;;;;;;;;;;6266215;28;20190;-70
2023/09/29 03:28:59;;;;;;;12.40;9.37;;;;;;;;;;6255793;28;20186;-72
2023/09/29 03:32:00;;;;;;;10.93;9.70;;;;;;;;;;6248166;28;20230;-70
2023/09/29 03:35:04;;;;;;;14.27;9.37;;;;;;;;;;6261318;28;20189;-71
2023/09/29 03:38:05;;;;;;;13.67;10.47;;;;;;;;;;6252293;28;20187;-70
2023/09/29 03:41:08;;;;;;;11.40;10.07;;;;;;;;;;6265176;28;20216;-71
2023/09/29 03:44:12;;;;;;;12.77;10.37;;;;;;;;;;6262541;28;20186;-71
2023/09/29 03:47:14;;;;;;;11.70;10.03;;;;;;;;;;6262659;28;20186;-71
2023/09/29 03:50:15;;;;;;;11.33;9.90;;;;;;;;;;6273428;28;20204;-71
2023/09/29 03:53:21;;;;;;;15.57;10.83;;;;;;;;;;6256931;28;20193;-70
2023/09/29 03:56:23;;;;;;;13.63;9.97;;;;;;;;;;6263065;28;20280;-70
2023/09/29 03:59:24;;;;;;;12.67;9.97;;;;;;;;;;6272953;28;20187;-70
2023/09/29 04:02:26;;;;;;;11.63;10.47;;;;;;;;;;6257898;28;20215;-69
2023/09/29 04:05:27;;;;;;;12.27;9.60;;;;;;;;;;6258269;28;20199;-70
2023/09/29 04:08:28;;;;;;;13.47;10.60;;;;;;;;;;6265394;28;20194;-69
2023/09/29 04:11:29;;;;;;;12.13;10.80;;;;;;;;;;6268246;28;20201;-71
2023/09/29 04:14:30;;;;;;;11.53;9.70;;;;;;;;;;6272135;28;20192;-70
2023/09/29 04:17:31;;;;;;;11.80;10.47;;;;;;;;;;6265534;28;20194;-70
2023/09/29 04:20:32;;;;;;;10.90;9.83;;;;;;;;;;6282994;28;20210;-70
2023/09/29 04:23:33;;;;;;;12.33;10.00;;;;;;;;;;6272992;28;20186;-71
2023/09/29 04:26:35;;;;;;;11.47;10.30;;;;;;;;;;6261594;28;20190;-71
2023/09/29 04:29:36;;;;;;;12.33;9.37;;;;;;;;;;6259687;28;20333;-70
2023/09/29 04:32:37;;;;;;;11.43;10.30;;;;;;;;;;6280500;28;20189;-71
2023/09/29 04:35:38;;;;;;;11.87;10.60;;;;;;;;;;6270438;28;20194;-71
2023/09/29 04:38:41;;;;;;;12.97;10.30;;;;;;;;;;6271937;28;20221;-72
2023/09/29 04:41:42;;;;;;;10.80;9.70;;;;;;;;;;6267379;28;20238;-71
2023/09/29 04:44:43;;;;;;;10.23;9.27;;;;;;;;;;6258642;28;20217;-71
2023/09/29 04:47:44;;;;;;;11.13;9.83;;;;;;;;;;6265799;28;20194;-72
2023/09/29 04:50:45;;;;;;;10.57;9.57;;;;;;;;;;6261820;28;20197;-72
2023/09/29 04:53:46;;;;;;;14.20;10.27;;;;;;;;;;6270826;28;20263;-72
2023/09/29 04:56:47;;;;;;;11.37;10.20;;;;;;;;;;6270552;28;20199;-71
2023/09/29 04:59:48;;;;;;;12.83;9.67;;;;;;;;;;6253672;28;20228;-71
2023/09/29 05:02:49;;;;;;;12.33;9.73;;;;;;;;;;6267127;28;20186;-71
2023/09/29 05:05:51;;;;;;;12.07;10.23;;;;;;;;;;6269089;28;20216;-72
2023/09/29 05:08:52;;;;;;;13.93;10.53;;;;;;;;;;6260680;28;20182;-71
2023/09/29 05:11:53;;;;;;;11.07;9.23;;;;;;;;;;6263461;28;20229;-68
2023/09/29 05:14:54;;;;;;;13.77;10.07;;;;;;;;;;6272770;28;20193;-70
2023/09/29 05:17:55;;;;;;;13.20;10.10;;;;;;;;;;6266272;28;20243;-70
2023/09/29 05:20:56;;;;;;;13.60;9.83;;;;;;;;;;6260792;28;20210;-70
2023/09/29 05:23:57;;;;;;;14.10;9.70;;;;;;;;;;6269634;28;20277;-71
2023/09/29 05:26:58;;;;;;;13.37;10.37;;;;;;;;;;6264531;28;20190;-70
2023/09/29 05:29:59;;;;;;;11.03;9.93;;;;;;;;;;6253660;28;20268;-70
2023/09/29 05:33:00;;;;;;;11.13;9.57;;;;;;;;;;6261713;28;20178;-70
2023/09/29 05:36:02;;;;;;;11.90;10.70;;;;;;;;;;6258209;28;20190;-70
2023/09/29 05:39:04;;;;;;;11.80;10.37;;;;;;;;;;6285864;28;20190;-70
2023/09/29 05:42:05;;;;;;;14.30;9.97;;;;;;;;;;6261479;28;20252;-70
2023/09/29 05:45:06;;;;;;;12.53;9.93;;;;;;;;;;6254506;28;20182;-71
2023/09/29 05:48:07;;;;;;;12.00;9.43;;;;;;;;;;6267927;28;20190;-71
2023/09/29 05:51:08;;;;;;;14.27;10.57;;;;;;;;;;6268437;28;20182;-70
2023/09/29 05:54:09;;;;;;;12.03;10.77;;;;;;;;;;6267854;28;20181;-70
2023/09/29 05:57:10;;;;;;;11.10;9.97;;;;;;;;;;6267560;28;20196;-70
2023/09/29 06:00:15;;;;;;;13.03;10.00;;;;;;;;;;6262104;28;20218;-71
2023/09/29 06:03:16;;;;;;;12.50;10.27;;;;;;;;;;6252713;28;20187;-70
2023/09/29 06:06:18;;;;;;;11.67;10.53;;;;;;;;;;6250629;28;20224;-70
2023/09/29 06:09:19;;;;;;;12.40;11.10;;;;;;;;;;6251703;28;20250;-70
2023/09/29 06:12:20;;;;;;;13.60;10.87;;;;;;;;;;6259081;28;20224;-70
2023/09/29 06:15:21;;;;;;;14.57;11.23;;;;;;;;;;6259486;28;20216;-68
2023/09/29 06:18:22;;;;;;;14.47;10.77;;;;;;;;;;6265140;28;20183;-70
2023/09/29 06:21:24;;;;;;;12.27;11.03;;;;;;;;;;6441442;23;20318;-71
2023/09/29 06:24:25;;;;;;;12.90;11.57;;;;;;;;;;6209625;28;20281;-70
2023/09/29 06:27:27;;;;;;;14.53;10.90;;;;;;;;;;6211087;28;20190;-70
2023/09/29 06:30:28;;;;;;;16.07;12.33;;;;;;;;;;6227326;28;20321;-69
2023/09/29 06:33:29;;;;;;;14.97;11.23;;;;;;;;;;6207847;28;20250;-69
2023/09/29 06:36:30;;;;;;;12.83;11.27;;;;;;;;;;6205962;28;20194;-69
2023/09/29 06:39:31;;;;;;;14.77;11.37;;;;;;;;;;6202820;28;20199;-70
2023/09/29 06:42:32;;;;;;;13.60;12.10;;;;;;;;;;6206497;28;20214;-69
2023/09/29 06:45:34;;;;;;;15.00;11.63;;;;;;;;;;6227291;28;20190;-70
2023/09/29 06:48:35;;;;;;;15.03;11.87;;;;;;;;;;6220175;28;20219;-71
2023/09/29 06:51:36;;;;;;;14.57;12.33;;;;;;;;;;6222186;28;20637;-71
2023/09/29 06:54:37;;;;;;;13.17;11.03;;;;;;;;;;6206665;28;20195;-71
2023/09/29 06:57:38;;;;;;;12.70;11.27;;;;;;;;;;6222299;28;20191;-71
2023/09/29 07:00:39;;;;;;;15.73;11.30;;;;;;;;;;6202953;28;20214;-71
2023/09/29 07:03:40;;;;;;;17.20;11.97;;;;;;;;;;6219306;28;20218;-71
2023/09/29 07:06:42;;;;;;;12.73;11.43;;;;;;;;;;6211412;28;20281;-71
2023/09/29 07:09:43;;;;;;;12.87;10.87;;;;;;;;;;6204299;28;20223;-71
2023/09/29 07:12:45;;;;;;;11.67;10.53;;;;;;;;;;6212143;28;20214;-71
2023/09/29 07:15:47;;;;;;;14.37;11.47;;;;;;;;;;6203810;28;20190;-71
2023/09/29 07:18:48;;;;;;;13.43;11.33;;;;;;;;;;6206976;28;20221;-71
2023/09/29 07:21:49;;;;;;;14.87;11.57;;;;;;;;;;6198468;28;20234;-71
2023/09/29 07:24:50;;;;;;;13.40;11.50;;;;;;;;;;6208508;28;20198;-71
2023/09/29 07:27:51;;;;;;;15.83;11.73;;;;;;;;;;6201772;28;20250;-71
2023/09/29 07:30:52;;;;;;;15.07;11.80;;;;;;;;;;6203580;28;20345;-71
2023/09/29 07:33:53;;;;;;;15.03;11.03;;;;;;;;;;6203458;28;20213;-71
2023/09/29 07:36:54;;;;;;;16.53;11.33;;;;;;;;;;6207973;28;20206;-71
2023/09/29 07:39:57;;;;;;;13.63;12.00;;;;;;;;;;6209104;28;20195;-71
2023/09/29 07:42:59;;;;;;;14.03;11.93;;;;;;;;;;6206131;28;20199;-71
2023/09/29 07:46:00;;;;;;;13.47;12.07;;;;;;;;;;6206669;28;20195;-71
2023/09/29 07:49:01;;;;;;;13.50;11.63;;;;;;;;;;6215440;28;20257;-71
2023/09/29 07:52:02;;;;;;;17.60;12.43;;;;;;;;;;6228596;28;20213;-71
2023/09/29 07:55:03;;;;;;;16.30;12.10;;;;;;;;;;6196300;28;20195;-71
2023/09/29 07:58:04;;;;;;;13.20;11.77;;;;;;;;;;6208300;28;20244;-71
2023/09/29 08:01:05;;;;;;;14.17;11.30;;;;;;;;;;6215505;28;20217;-71
2023/09/29 08:04:06;;;;;;;14.93;11.63;;;;;;;;;;6215944;28;20190;-71
2023/09/29 08:07:08;;;;;;;14.00;11.53;;;;;;;;;;6225359;28;20184;-71
2023/09/29 08:10:11;;;;;;;12.47;11.20;;;24.00;50.00;;;;;;6206524;28;20183;-70
2023/09/29 08:13:12;;;;;;;13.33;11.87;;;13.90;90.10;;;;;;6212210;28;20282;-70
2023/09/29 08:16:13;;;;;;;17.33;11.67;;;13.90;90.20;;;;;;6208083;28;20195;-70
2023/09/29 08:19:14;;;;;;;14.53;11.90;;;13.90;90.00;;;;;;6190433;28;20179;-70
2023/09/29 08:22:14;;;;;;;13.33;11.33;;;14.00;89.80;;;;;;6188993;28;20720;-70
2023/09/29 08:25:15;;;;;;;12.93;10.63;;;14.10;89.50;;;;;;6210016;28;20256;-70
2023/09/29 08:28:16;;;;;;;13.30;11.00;;;14.10;89.40;;;;;;6206738;28;20179;-70
2023/09/29 08:31:17;;;;;;;16.57;11.30;;;14.20;89.50;;;;;;6185757;28;20194;-70
2023/09/29 08:34:18;;;;;;;12.20;11.00;;;14.20;89.40;;;;;;6189709;28;20288;-71
2023/09/29 08:37:19;;;;;;;12.57;10.97;;;14.30;89.30;;;;;;6210645;28;20192;-70
2023/09/29 08:40:19;;;;;;;11.50;10.40;;;14.40;89.10;;;;;;6203231;28;20670;-70
2023/09/29 08:43:21;;;;;;;11.73;10.53;;;14.40;88.60;;;;;;6214617;28;20184;-70
2023/09/29 08:46:21;;;;;;;11.27;10.13;;;14.50;88.40;;;;;;6204871;28;20192;-70
2023/09/29 08:49:23;;;;;;;11.93;10.47;;;;;;;;;;6194517;28;20213;-71
2023/09/29 08:52:24;;;;;;;13.40;11.10;;;;;;;;;;6214320;28;20195;-71
2023/09/29 08:55:25;;;;;;;14.20;11.87;;;;;;;;;;6206572;28;20650;-70
2023/09/29 08:58:28;;;;;;;13.60;11.53;;;;;;;;;;6222434;28;20190;-70
2023/09/29 09:01:30;;;;;;;12.53;11.37;;;;;;;;;;6214351;28;20219;-70
2023/09/29 09:04:31;;;;;;;11.23;10.13;;;;;;;;;;6207518;28;20187;-70
2023/09/29 09:07:32;;;;;;;10.80;9.80;;;;;;;;;;6212011;28;20182;-71
2023/09/29 09:10:37;;;;;;;12.47;10.07;;;;;;;;;;6210011;28;20194;-71
2023/09/29 09:13:38;;;;;;;11.37;10.27;;;;;;;;;;6202094;28;20194;-71
2023/09/29 09:16:40;;;;;;;12.20;10.90;;;;;;;;;;6197592;28;20252;-71
2023/09/29 09:19:51;;;;;;;11.80;10.00;;;;;;;;;;6210386;28;20215;-71
2023/09/29 09:23:03;;;;;;;10.83;9.57;;;14.60;88.20;;;;;;6227810;28;20239;-71
2023/09/29 09:26:16;;;;;;;9.40;8.13;;;15.60;83.70;;;;;;6222720;28;20237;-70
2023/09/29 09:29:17;;;;;;;7.67;6.37;;;15.80;80.20;;;;;;6211486;28;20187;-70
2023/09/29 09:32:27;;;;;;;6.40;5.83;;;;;;;;;;6215834;28;20190;-70
2023/09/29 09:35:29;;;;;;;6.80;6.10;;;;;;;;;;6209951;28;20198;-70
2023/09/29 09:38:33;;;;;;;7.87;6.07;;;;;;;;;;6225193;28;20198;-70
2023/09/29 09:41:35;;;;;;;7.43;5.80;;;;;;;;;;6210255;28;20242;-71
2023/09/29 09:44:38;;;;;;;9.97;5.87;;;;;;;;;;6215420;28;20187;-71
2023/09/29 09:47:40;;;;;;;7.80;5.93;;;16.00;76.20;;;;;;6204646;28;20192;-71
2023/09/29 09:50:44;;;;;;;7.97;6.13;;;1.10;74.30;;;;;;6201682;28;20264;-70
2023/09/29 09:53:47;;;;;;;8.03;6.20;;;16.70;73.40;;;;;;6219929;28;20184;-70
2023/09/29 09:57:11;;;;;;;6.70;5.83;;;16.70;74.30;;;;;;6193031;28;20203;-70
2023/09/29 10:00:13;;;;;;;6.30;5.37;;;16.80;71.80;;;;;;6205340;28;20266;-70
2023/09/29 10:03:16;;;;;;;8.57;5.60;;;16.90;70.40;;;;;;6197395;28;20188;-71
2023/09/29 10:06:18;;;;;;;6.30;5.63;;;17.00;70.50;;;;;;6204046;28;20185;-70
2023/09/29 10:09:18;;;;;;;8.77;5.47;;;17.00;71.30;;;;;;6209107;28;20183;-71
2023/09/29 10:12:27;;;;;;;5.97;5.40;;;17.20;71.70;;;;;;6190818;28;20288;-70
2023/09/29 10:15:29;;;;;;;8.23;5.83;;;;;;;;;;6224648;28;20274;-70
2023/09/29 10:18:32;;;;;;;9.07;5.83;;;;;;;;;;6193207;28;20219;-71
2023/09/29 10:21:43;;;;;;;10.33;5.63;;;;;;;;;;6211325;28;20221;-71
2023/09/29 10:24:44;;;;;;;10.37;6.60;;;;;;;;;;6224835;28;20206;-71
2023/09/29 10:27:49;;;;;;;10.53;5.83;;;;;;;;;;6205945;28;20183;-71
2023/09/29 10:30:50;;;;;;;8.93;5.67;;;;;;;;;;6202183;28;20223;-71
2023/09/29 10:33:55;;;;;;;6.97;5.43;;;;;;;;;;6205810;28;20194;-71
2023/09/29 10:36:56;;;;;;;9.03;5.53;;;;;;;;;;6221213;28;20188;-71
2023/09/29 10:39:57;;;;;;;9.47;5.47;;;;;;;;;;6216544;28;20306;-71
2023/09/29 10:43:02;;;;;;;7.10;5.63;;;;;;;;;;6204804;28;20357;-71
2023/09/29 10:46:09;;;;;;;5.30;4.80;;;;;;;;;;6224602;28;20187;-71
2023/09/29 10:49:10;;;;;;;6.40;4.97;;;;;;;;;;6207044;28;20278;-71
2023/09/29 10:52:22;;;;;;;8.73;5.73;;;;;;;;;;6200362;28;20219;-71
2023/09/29 10:55:23;;;;;;;7.83;5.27;;;;;;;;;;6195962;28;20264;-71
2023/09/29 10:58:27;;;;;;;6.80;5.20;;;;;;;;;;6227798;28;20191;-71
2023/09/29 11:01:33;;;;;;;6.47;5.10;;;;;;;;;;6192998;28;20245;-71
2023/09/29 11:04:35;;;;;;;5.50;5.00;;;;;;;;;;6208013;28;20186;-71
2023/09/29 11:07:50;;;;;;;5.40;4.90;;;;;;;;;;6206949;28;20289;-71
2023/09/29 11:10:58;;;;;;;5.97;4.73;;;;;;;;;;6221184;28;20274;-71
2023/09/29 11:13:59;;;;;;;6.70;4.83;;;17.30;71.50;;;;;;6220406;28;20262;-71
2023/09/29 11:17:00;;;;;;;7.03;5.27;;;19.70;58.70;;;;;;6209738;28;20193;-70
2023/09/29 11:20:07;;;;;;;5.63;4.77;;;;;;;;;;6180173;28;20195;-70
2023/09/29 11:23:11;;;;;;;9.50;4.87;;;;;;;;;;6207678;28;20285;-71
2023/09/29 11:26:12;;;;;;;7.70;5.10;;;;;;;;;;6203421;28;20205;-71
2023/09/29 11:29:23;;;;;;;5.67;4.67;;;;;;;;;;6227794;28;20240;-70
2023/09/29 11:32:25;;;;;;;5.60;4.70;;;;;;;;;;6204157;28;20219;-71
2023/09/29 11:35:28;;;;;;;7.67;5.13;;;;;;;;;;6215534;28;20284;-70
2023/09/29 11:38:29;;;;;;;8.37;4.97;;;;;;;;;;6221925;28;20191;-71
2023/09/29 11:41:30;;;;;;;5.00;4.53;;;;;;;;;;6207898;28;20275;-70
2023/09/29 11:44:31;;;;;;;5.77;5.03;;;;;;;;;;6226415;28;20182;-70
2023/09/29 11:47:33;;;;;;;5.40;4.83;;;;;;;;;;6199564;28;20187;-71
2023/09/29 11:50:34;;;;;;;6.17;4.80;;;;;;;;;;6210012;28;20203;-71
2023/09/29 11:53:35;;;;;;;5.30;4.50;;;;;;;;;;6238987;28;20204;-71
2023/09/29 11:56:36;;;;;;;6.60;4.60;;;19.70;59.40;;;;;;6227495;28;20190;-71
2023/09/29 11:59:37;;;;;;;7.90;4.97;;;;;;;;;;6214612;28;20191;-71
2023/09/29 12:02:39;;;;;;;6.57;4.90;;;;;;;;;;6214052;28;20222;-71
2023/09/29 12:05:40;;;;;;;8.60;4.67;;;;;;;;;;6219304;28;20369;-70
2023/09/29 12:08:41;;;;;;;6.40;4.67;;;;;;;;;;6206697;28;20203;-71
2023/09/29 12:11:42;;;;;;;6.50;4.83;;;;;;;;;;6192993;28;20190;-71
2023/09/29 12:14:43;;;;;;;7.10;4.70;;;21.10;58.20;;;;;;6198151;28;20190;-71
2023/09/29 12:17:45;;;;;;;6.33;4.57;;;;;;;;;;6190612;28;20218;-71
2023/09/29 12:20:46;;;;;;;6.60;5.13;;;22.80;51.30;;;;;;6208919;28;20319;-71
2023/09/29 12:23:47;;;;;;;8.10;4.70;;;;;;;;;;6177461;28;20241;-71
2023/09/29 12:26:48;;;;;;;7.87;4.73;;;23.90;50.30;;;;;;6193659;28;20183;-71
2023/09/29 12:29:49;;;;;;;5.93;4.40;;;25.60;45.60;;;;;;6188039;28;20193;-71
2023/09/29 12:32:50;;;;;;;6.70;4.67;;;;;;;;;;6191266;28;20356;-71
2023/09/29 12:35:51;;;;;;;5.37;4.40;;;;;;;;;;6197379;28;20213;-71
2023/09/29 12:38:52;;;;;;;5.23;3.77;;;;;;;;;;6199651;28;20308;-72
2023/09/29 12:41:53;;;;;;;5.43;3.80;;;;;;;;;;6197385;28;20297;-72
2023/09/29 12:44:54;;;;;;;6.17;4.07;;;;;;;;;;6201822;28;20201;-71
2023/09/29 12:47:58;;;;;;;5.20;4.13;;;;;;;;;;6204190;28;20183;-71
2023/09/29 12:50:59;;;;;;;5.57;4.37;;;;;;;;;;6221572;28;20174;-71
2023/09/29 12:54:01;;;;;;;6.53;4.50;;;26.10;47.60;;;;;;6204038;28;20191;-70
2023/09/29 12:57:02;;;;;;;4.77;4.10;;;;;;;;;;6189164;28;20194;-71
2023/09/29 13:00:04;;;;;;;5.03;4.20;;;;;;;;;;6204315;28;20216;-70
2023/09/29 13:03:05;;;;;;;5.50;4.00;;;;;;;;;;6204102;28;20305;-71
2023/09/29 13:06:07;;;;;;;9.60;4.40;;;;;;;;;;6201863;28;20193;-70
2023/09/29 13:09:11;;;;;;;6.83;4.53;;;;;;;;;;6217135;28;20215;-71
2023/09/29 13:12:14;;;;;;;4.93;4.43;;;;;;;;;;6220569;28;20192;-71
2023/09/29 13:15:15;;;;;;;6.60;4.37;;;;;;;;;;6198476;28;20195;-71
2023/09/29 13:18:18;;;;;;;5.73;4.60;;;;;;;;;;6197224;28;20187;-70
2023/09/29 13:21:19;;;;;;;6.13;4.70;;;;;;;;;;6213436;28;20206;-70
2023/09/29 13:24:21;;;;;;;5.67;4.03;;;;;;;;;;6195456;28;20369;-70
2023/09/29 13:27:22;;;;;;;4.50;4.10;;;;;;;;;;6203472;28;20198;-71
2023/09/29 13:30:24;;;;;;;6.07;3.77;;;;;;;;;;6201561;28;20216;-71
2023/09/29 13:33:27;;;;;;;5.28;4.10;;;;;;;;;;6202070;28;20198;-71
2023/09/29 13:36:31;;;;;;;5.60;3.70;;;;;;;;;;6204758;28;20420;-71
2023/09/29 13:39:32;;;;;;;6.72;4.47;;;;;;;;;;6204288;28;20195;-71
2023/09/29 13:42:33;;;;;;;6.85;3.70;;;;;;;;;;6206570;28;20233;-71
2023/09/29 13:45:34;;;;;;;4.82;3.50;;;;;;;;;;6207293;28;20187;-71
2023/09/29 13:48:36;;;;;;;5.60;3.55;;;;;;;;;;6208131;28;20624;-71
2023/09/29 13:51:38;;;;;;;4.80;3.83;;;;;;;;;;6211747;28;20270;-71
2023/09/29 13:54:39;;;;;;;4.20;3.75;;;;;;;;;;6215097;28;20187;-71
2023/09/29 13:57:41;;;;;;;4.25;3.42;;;;;;;;;;6202474;28;20190;-71
2023/09/29 14:00:42;;;;;;;3.72;3.42;;;;;;;;;;6214781;28;20291;-71
2023/09/29 14:03:43;;;;;;;6.15;3.72;;;;;;;;;;6215620;28;20220;-70
2023/09/29 14:06:45;;;;;;;5.20;3.72;;;;;;;;;;6209016;28;20186;-70
2023/09/29 14:09:46;;;;;;;5.53;3.50;;;;;;;;;;6215122;28;20277;-70
2023/09/29 14:12:47;;;;;;;4.47;4.07;;;;;;;;;;6215935;28;20190;-70
2023/09/29 14:15:48;;;;;;;4.80;3.97;;;;;;;;;;6208153;28;20218;-70
2023/09/29 14:18:50;;;;;;;6.88;4.18;;;;;;;;;;6214679;28;20190;-70
2023/09/29 14:21:51;;;;;;;4.35;3.80;;;;;;;;;;6221168;28;20234;-70
2023/09/29 14:24:52;;;;;;;6.10;4.10;;;;;;;;;;6236015;28;20190;-70
2023/09/29 14:27:53;;;;;;;6.80;4.07;;;;;;;;;;6216985;28;20196;-70
2023/09/29 14:30:54;;;;;;;4.82;4.30;;;;;;;;;;6217655;28;20190;-70
2023/09/29 14:33:55;;;;;;;5.03;4.53;;;;;;;;;;6209700;28;20195;-70
2023/09/29 14:36:56;;;;;;;6.43;4.07;;;;;;;;;;6205641;28;20276;-69
2023/09/29 14:39:59;;;;;;;5.45;4.88;;;;;;;;;;6213050;28;20193;-70
2023/09/29 14:43:00;;;;;;;6.88;4.40;;;;;;;;;;6202968;28;20252;-70
2023/09/29 14:46:05;;;;;;;4.67;4.17;;;;;;;;;;6211017;28;20195;-70
2023/09/29 14:49:07;;;;;;;5.93;4.13;;;;;;;;;;6226426;28;20186;-70
2023/09/29 14:52:08;;;;;;;8.00;4.30;;;;;;;;;;6208017;28;20225;-70
2023/09/29 14:55:09;;;;;;;7.87;4.50;;;;;;;;;;6213103;28;20188;-70
2023/09/29 14:58:11;;;;;;;8.57;4.70;;;;;;;;;;6210731;28;20286;-70
2023/09/29 15:01:12;;;;;;;4.37;3.90;;;;;;;;;;6207865;28;20237;-70
2023/09/29 15:04:13;;;;;;;6.27;4.80;;;;;;;;;;6215025;28;20193;-70
2023/09/29 15:07:14;;;;;;;7.70;4.30;;;;;;;;;;6205862;28;20251;-70
2023/09/29 15:10:15;;;;;;;4.70;4.20;;;;;;;;;;6197173;28;20198;-70
2023/09/29 15:13:16;;;;;;;12.97;5.00;;;;;;;;;;6207941;28;20187;-71
2023/09/29 15:16:18;;;;;;;6.63;4.50;;;;;;;;;;6208851;28;20190;-71
2023/09/29 15:19:19;;;;;;;4.97;4.00;;;;;;;;;;6217265;28;20199;-71
2023/09/29 15:22:25;;;;;;;7.87;4.60;;;;;;;;;;6211945;28;20293;-70
2023/09/29 15:25:26;;;;;;;6.10;4.20;;;;;;;;;;6206903;28;20198;-71
2023/09/29 15:28:27;;;;;;;7.63;4.73;;;30.50;38.30;;;;;;6224133;28;20201;-72
2023/09/29 15:31:28;;;;;;;8.00;4.63;;;;;;;;;;6210766;28;20198;-71
2023/09/29 15:34:30;;;;;;;8.20;4.47;;;;;;;;;;6213047;28;20225;-71
2023/09/29 15:37:31;;;;;;;6.90;5.03;;;;;;;;;;6210036;28;20245;-70
2023/09/29 15:40:32;;;;;;;8.10;4.73;;;;;;;;;;6211313;28;20352;-71
2023/09/29 15:43:33;;;;;;;5.07;4.30;;;;;;;;;;6210576;28;20202;-71
2023/09/29 15:46:34;;;;;;;7.90;4.67;;;;;;;;;;6204576;28;20191;-71
2023/09/29 15:49:41;;;;;;;5.00;4.50;;;;;;;;;;6204363;28;20202;-71
2023/09/29 15:52:44;;;;;;;6.53;4.63;;;;;;;;;;6212127;28;20203;-71
2023/09/29 15:55:45;;;;;;;6.57;4.97;;;;;;;;;;6209073;28;20206;-71
2023/09/29 15:58:46;;;;;;;10.43;5.23;;;;;;;;;;6211708;28;20203;-70
2023/09/29 16:01:46;;;;;;;9.07;5.00;;;25.00;54.10;;;;;;6224147;28;20219;-71
2023/09/29 16:04:48;;;;;;;7.83;5.13;;;24.40;55.50;;;;;;6189414;28;20237;-69
2023/09/29 16:07:48;;;;;;;6.70;5.20;;;24.00;56.10;;;;;;6215649;28;20198;-69
2023/09/29 16:10:49;;;;;;;5.90;5.00;;;23.80;56.40;;;;;;6206718;28;20198;-69
2023/09/29 16:13:50;;;;;;;7.20;5.80;;;23.50;57.20;;;;;;6191248;28;20193;-70
2023/09/29 16:16:51;;;;;;;10.77;5.97;;;;;;;;;;6191245;28;21218;-70
2023/09/29 16:19:52;;;;;;;6.20;5.50;;;23.10;59.00;;;;;;6239244;28;20190;-70
2023/09/29 16:22:53;;;;;;;9.33;6.23;;;22.90;59.40;;;;;;6207222;28;20235;-70
2023/09/29 16:25:54;;;;;;;8.30;5.83;;;22.70;60.70;;;;;;6189889;28;20204;-70
2023/09/29 16:28:55;;;;;;;8.27;5.93;;;;;;;;;;6215115;28;20186;-71
2023/09/29 16:31:56;;;;;;;6.37;5.77;;;22.50;61.10;;;;;;6216647;28;20190;-70
2023/09/29 16:34:59;;;;;;;7.27;6.57;;;;;;;;;;6187070;28;20195;-69
2023/09/29 16:38:00;;;;;;;10.13;6.43;;;;;;;;;;6205334;28;20238;-69
2023/09/29 16:41:01;;;;;;;8.30;6.03;;;;;;;;;;6227110;28;20221;-68
2023/09/29 16:44:04;;;;;;;7.23;6.20;;;;;;;;;;6203526;28;20197;-69
2023/09/29 16:47:06;;;;;;;8.90;6.53;;;;;;;;;;6209889;28;20199;-69
2023/09/29 16:50:07;;;;;;;8.53;7.00;;;;;;;;;;6222167;28;20230;-69
2023/09/29 16:53:08;;;;;;;6.83;6.23;;;;;;;;;;6243996;28;20193;-68
2023/09/29 16:56:09;;;;;;;9.27;6.93;;;;;;;;;;6225747;28;20186;-71
2023/09/29 16:59:10;;;;;;;7.90;6.70;;;;;;;;;;6226334;28;20280;-70
2023/09/29 17:02:11;;;;;;;7.20;6.60;;;;;;;;;;6216138;28;20305;-68
2023/09/29 17:05:12;;;;;;;7.70;6.60;;;;;;;;;;6200093;28;20290;-70
2023/09/29 17:08:13;;;;;;;10.17;7.57;;;;;;;;;;6227431;28;20214;-69
2023/09/29 17:11:17;;;;;;;8.70;6.93;;;;;;;;;;6213377;28;20190;-69
2023/09/29 17:14:18;;;;;;;14.30;7.27;;;;;;;;;;6227566;28;20190;-69
2023/09/29 17:17:20;;;;;;;9.37;6.77;;;;;;;;;;6215583;28;20260;-69
2023/09/29 17:20:21;;;;;;;8.60;6.97;;;;;;;;;;6208039;28;20190;-69
2023/09/29 17:23:22;;;;;;;8.37;7.57;;;;;;;;;;6220715;28;20242;-69
2023/09/29 17:26:24;;;;;;;8.97;6.93;;;;;;;;;;6208004;28;20195;-69
2023/09/29 17:29:27;;;;;;;9.20;6.63;;;;;;;;;;6196006;28;20199;-69
2023/09/29 17:32:29;;;;;;;7.87;7.07;;;;;;;;;;6200011;28;20280;-69
2023/09/29 17:35:30;;;;;;;8.07;7.27;;;;;;;;;;6206881;28;20203;-69
2023/09/29 17:38:35;;;;;;;9.63;6.70;;;;;;;;;;6195646;28;20258;-70